Time;durP1;ratioP1;P1;durP2;ratioP2;P2;SDS_P1;SDS_P2;PMS_P1;PMS_P2;Temp;Humidity;BMP_temperature;BMP_pressure;BME280_temperature;BME280_humidity;BME280_pressure;Samples;Min_cycle;Max_cycle;Signal;HPM_P1;HPM_P2
2023/12/20 00:01:35;;;;;;;15.80;2.20;;;7.80;99.90;;;;;;6368499;22;20078;-88
2023/12/20 00:04:01;;;;;;;18.38;2.85;;;7.80;99.90;;;;;;6368668;22;20018;-88
2023/12/20 00:06:27;;;;;;;10.30;1.90;;;7.80;99.90;;;;;;6386992;22;20003;-88
2023/12/20 00:08:53;;;;;;;13.98;2.75;;;7.80;99.90;;;;;;6368496;22;20081;-88
2023/12/20 00:11:19;;;;;;;13.45;2.47;;;7.80;99.90;;;;;;6368922;22;20009;-88
2023/12/20 00:13:44;;;;;;;21.80;2.50;;;7.80;99.90;;;;;;6367060;22;20533;-88
2023/12/20 00:16:10;;;;;;;9.23;2.05;;;7.70;99.90;;;;;;6367172;22;20021;-87
2023/12/20 00:18:35;;;;;;;17.08;2.65;;;7.80;99.90;;;;;;6368288;22;19994;-89
2023/12/20 00:21:01;;;;;;;19.13;2.90;;;7.70;99.90;;;;;;6369375;22;20084;-89
2023/12/20 00:23:26;;;;;;;13.55;2.83;;;7.80;99.90;;;;;;6385928;22;20002;-88
2023/12/20 00:25:52;;;;;;;19.00;2.55;;;7.70;99.90;;;;;;6376402;22;20002;-89
2023/12/20 00:28:18;;;;;;;17.33;2.75;;;7.70;99.90;;;;;;6371771;22;20041;-88
2023/12/20 00:30:44;;;;;;;16.42;2.50;;;7.80;99.90;;;;;;6368322;22;20134;-89
2023/12/20 00:33:09;;;;;;;11.18;2.33;;;7.80;99.90;;;;;;6368866;22;19998;-88
2023/12/20 00:35:36;;;;;;;14.35;3.05;;;7.80;99.90;;;;;;6366968;22;20010;-88
2023/12/20 00:38:02;;;;;;;14.85;2.65;;;7.80;99.90;;;;;;6370106;22;20021;-89
2023/12/20 00:40:28;;;;;;;26.48;3.22;;;7.70;99.90;;;;;;6372184;22;20014;-89
2023/12/20 00:42:55;;;;;;;20.15;2.38;;;7.80;99.90;;;;;;6373323;22;19995;-89
2023/12/20 00:45:21;;;;;;;18.25;2.78;;;7.70;99.90;;;;;;6368458;22;20002;-89
2023/12/20 00:47:47;;;;;;;9.45;2.17;;;7.70;99.90;;;;;;6369706;22;20364;-88
2023/12/20 00:50:12;;;;;;;17.13;3.08;;;7.70;99.90;;;;;;6369207;22;20006;-88
2023/12/20 00:52:39;;;;;;;13.82;2.83;;;7.70;99.90;;;;;;6368003;22;19995;-88
2023/12/20 00:55:05;;;;;;;17.08;2.15;;;7.70;99.90;;;;;;6369381;22;20002;-87
2023/12/20 00:57:31;;;;;;;17.60;2.92;;;7.70;99.90;;;;;;6367325;22;20005;-87
2023/12/20 00:59:56;;;;;;;11.65;3.28;;;7.70;99.90;;;;;;6366955;22;20003;-87
2023/12/20 01:02:22;;;;;;;18.90;2.70;;;7.80;99.90;;;;;;6368011;22;19997;-87
2023/12/20 01:04:47;;;;;;;22.13;3.45;;;7.80;99.90;;;;;;6367883;22;19998;-88
2023/12/20 01:07:13;;;;;;;14.73;3.65;;;7.80;99.90;;;;;;6367854;22;20077;-89
2023/12/20 01:09:38;;;;;;;25.38;3.70;;;7.80;99.90;;;;;;6367353;22;20002;-87
2023/12/20 01:12:04;;;;;;;16.17;2.78;;;7.80;99.90;;;;;;6368748;22;20003;-87
2023/12/20 01:14:30;;;;;;;13.98;2.88;;;7.80;99.90;;;;;;6366941;22;20006;-87
2023/12/20 01:16:55;;;;;;;25.02;4.13;;;7.90;99.90;;;;;;6370334;22;20329;-88
2023/12/20 01:19:21;;;;;;;14.07;2.85;;;7.90;99.90;;;;;;6374835;22;20034;-87
2023/12/20 01:21:47;;;;;;;12.95;2.85;;;7.90;99.90;;;;;;6367440;22;20003;-88
2023/12/20 01:24:12;;;;;;;13.73;2.92;;;7.80;99.90;;;;;;6370149;22;20006;-86
2023/12/20 01:26:38;;;;;;;22.33;3.95;;;7.80;99.90;;;;;;6369936;22;19998;-88
2023/12/20 01:29:03;;;;;;;16.52;4.13;;;7.90;99.90;;;;;;6370137;22;20028;-87
2023/12/20 01:31:29;;;;;;;11.73;2.92;;;7.80;99.90;;;;;;6376235;22;20098;-88
2023/12/20 01:33:54;;;;;;;20.45;3.65;;;7.80;99.90;;;;;;6374088;22;19999;-87
2023/12/20 01:36:20;;;;;;;20.42;3.47;;;7.80;99.90;;;;;;6370829;22;20372;-87
2023/12/20 01:38:45;;;;;;;18.48;2.45;;;7.80;99.90;;;;;;6369964;22;20028;-86
2023/12/20 01:41:11;;;;;;;18.40;3.42;;;7.90;99.90;;;;;;6368734;22;20010;-87
2023/12/20 01:43:36;;;;;;;14.10;2.83;;;7.80;99.90;;;;;;6369073;22;19998;-87
2023/12/20 01:46:03;;;;;;;16.70;3.85;;;7.90;99.90;;;;;;6372101;22;20036;-88
2023/12/20 01:48:29;;;;;;;17.95;3.55;;;7.90;99.90;;;;;;6370329;22;20001;-89
2023/12/20 01:50:55;;;;;;;26.38;4.00;;;7.90;99.90;;;;;;6370114;22;20453;-88
2023/12/20 01:53:25;;;;;;;22.27;3.10;;;7.90;99.90;;;;;;6371191;22;20003;-88
2023/12/20 01:55:52;;;;;;;20.77;3.78;;;7.90;99.90;;;;;;6370214;22;20006;-88
2023/12/20 01:58:19;;;;;;;10.43;3.58;;;7.90;99.90;;;;;;6370728;22;20031;-89
2023/12/20 02:00:45;;;;;;;19.92;4.68;;;7.90;99.90;;;;;;6370558;22;20060;-88
2023/12/20 02:03:11;;;;;;;21.83;3.05;;;7.90;99.90;;;;;;6368061;22;20046;-88
2023/12/20 02:05:38;;;;;;;20.17;4.18;;;7.90;99.90;;;;;;6370660;22;20002;-87
2023/12/20 02:08:05;;;;;;;27.10;3.85;;;7.90;99.90;;;;;;6370715;22;20048;-88
2023/12/20 02:10:31;;;;;;;14.25;3.08;;;8.00;99.90;;;;;;6368939;22;20059;-89
2023/12/20 02:12:57;;;;;;;12.77;2.85;;;8.00;99.90;;;;;;6389272;22;19994;-87
2023/12/20 02:15:24;;;;;;;18.05;3.38;;;7.90;99.90;;;;;;6373003;22;20014;-88
2023/12/20 02:17:50;;;;;;;17.70;3.40;;;8.00;99.90;;;;;;6369574;22;20414;-87
2023/12/20 02:20:15;;;;;;;19.58;3.75;;;7.90;99.90;;;;;;6370548;22;20028;-87
2023/12/20 02:22:41;;;;;;;27.70;3.88;;;7.90;99.90;;;;;;6368634;22;20342;-87
2023/12/20 02:25:07;;;;;;;14.25;3.78;;;8.00;99.90;;;;;;6367747;22;20246;-88
2023/12/20 02:27:32;;;;;;;17.25;3.30;;;7.90;99.90;;;;;;6368592;22;20410;-87
2023/12/20 02:29:58;;;;;;;25.13;3.25;;;8.00;99.90;;;;;;6369040;22;20018;-87
2023/12/20 02:32:27;;;;;;;17.58;3.42;;;8.00;99.90;;;;;;6370069;22;20006;-88
2023/12/20 02:34:53;;;;;;;17.67;3.40;;;8.20;99.90;;;;;;6369377;22;20010;-87
2023/12/20 02:37:19;;;;;;;16.90;3.88;;;8.00;99.90;;;;;;6369621;22;19995;-88
2023/12/20 02:39:44;;;;;;;20.10;3.55;;;8.00;99.90;;;;;;6380660;22;20085;-88
2023/12/20 02:42:10;;;;;;;17.15;3.88;;;8.00;99.90;;;;;;6371307;22;19998;-88
2023/12/20 02:44:36;;;;;;;23.67;3.90;;;8.00;99.90;;;;;;6368937;22;19994;-88
2023/12/20 02:47:02;;;;;;;23.67;4.15;;;8.00;99.90;;;;;;6368743;22;20002;-87
2023/12/20 02:49:27;;;;;;;25.27;5.20;;;8.10;99.90;;;;;;6370986;22;20002;-88
2023/12/20 02:51:53;;;;;;;24.05;4.35;;;8.10;99.90;;;;;;6369668;22;20053;-88
2023/12/20 02:54:18;;;;;;;22.70;3.67;;;8.00;99.90;;;;;;6371263;22;19995;-89
2023/12/20 02:56:44;;;;;;;20.67;4.28;;;8.10;99.90;;;;;;6369742;22;20071;-87
2023/12/20 02:59:09;;;;;;;20.75;3.60;;;8.20;99.90;;;;;;6368414;22;20003;-88
2023/12/20 03:01:41;;;;;;;22.65;3.88;;;8.20;99.90;;;;;;6370113;22;20081;-88
2023/12/20 03:04:06;;;;;;;27.35;4.75;;;8.20;99.90;;;;;;6369822;22;20002;-88
2023/12/20 03:06:32;;;;;;;16.50;3.58;;;8.10;99.90;;;;;;6372902;22;20005;-87
2023/12/20 03:08:57;;;;;;;18.25;3.30;;;8.10;99.90;;;;;;6380508;22;20006;-88
2023/12/20 03:11:27;;;;;;;18.08;3.05;;;8.10;99.90;;;;;;6370561;22;20334;-88
2023/12/20 03:13:53;;;;;;;20.50;3.90;;;8.10;99.90;;;;;;6368566;22;20010;-88
2023/12/20 03:16:18;;;;;;;18.20;2.88;;;8.20;99.90;;;;;;6370551;22;20597;-87
2023/12/20 03:18:44;;;;;;;18.83;3.15;;;8.10;99.90;;;;;;6369108;22;20002;-88
2023/12/20 03:21:09;;;;;;;20.95;3.47;;;8.20;99.90;;;;;;6369846;22;20299;-87
2023/12/20 03:23:36;;;;;;;33.35;4.28;;;8.20;99.90;;;;;;6370100;22;20036;-88
2023/12/20 03:26:02;;;;;;;23.90;3.75;;;8.10;99.90;;;;;;6369565;22;19994;-88
2023/12/20 03:28:28;;;;;;;16.15;3.58;;;8.10;99.90;;;;;;6369410;22;20441;-88
2023/12/20 03:30:53;;;;;;;28.38;3.85;;;8.10;99.90;;;;;;6368104;22;20011;-88
2023/12/20 03:33:19;;;;;;;21.33;3.67;;;8.10;99.90;;;;;;6369233;22;20424;-88
2023/12/20 03:35:44;;;;;;;18.20;3.63;;;8.10;99.90;;;;;;6368850;22;20002;-88
2023/12/20 03:38:10;;;;;;;27.80;4.10;;;8.10;99.90;;;;;;6372774;22;20010;-90
2023/12/20 03:40:36;;;;;;;29.42;4.13;;;8.10;99.90;;;;;;6373172;22;19999;-88
2023/12/20 03:43:01;;;;;;;25.30;4.65;;;8.20;99.90;;;;;;6370405;22;20047;-87
2023/12/20 03:45:27;;;;;;;18.40;3.90;;;8.20;99.90;;;;;;6369848;22;20030;-87
2023/12/20 03:47:56;;;;;;;15.90;2.97;;;8.10;99.90;;;;;;6368139;22;20010;-88
2023/12/20 03:50:25;;;;;;;27.30;3.63;;;8.10;99.90;;;;;;6367321;22;20010;-88
2023/12/20 03:52:52;;;;;;;14.63;3.25;;;8.20;99.90;;;;;;6367891;22;20071;-88
2023/12/20 03:55:18;;;;;;;20.75;3.75;;;8.20;99.90;;;;;;6368188;22;20033;-88
2023/12/20 03:57:43;;;;;;;16.73;3.10;;;8.20;99.90;;;;;;6369862;22;19995;-88
2023/12/20 04:00:10;;;;;;;26.23;4.15;;;8.20;99.90;;;;;;6375346;22;20414;-88
2023/12/20 04:02:37;;;;;;;17.33;3.88;;;8.10;99.90;;;;;;6383109;22;19999;-87
2023/12/20 04:05:02;;;;;;;15.27;3.25;;;8.20;99.90;;;;;;6370668;22;20418;-88
2023/12/20 04:07:29;;;;;;;19.23;3.85;;;8.10;99.90;;;;;;6369550;22;20056;-88
2023/12/20 04:09:56;;;;;;;23.88;3.50;;;8.10;99.90;;;;;;6367716;22;20010;-89
2023/12/20 04:12:21;;;;;;;23.23;4.50;;;8.10;99.90;;;;;;6386276;22;19991;-88
2023/12/20 04:14:47;;;;;;;23.17;4.85;;;8.00;99.90;;;;;;6369413;22;19994;-88
2023/12/20 04:17:12;;;;;;;24.35;3.72;;;8.00;99.90;;;;;;6368112;22;20006;-88
2023/12/20 04:19:38;;;;;;;27.23;3.83;;;8.00;99.90;;;;;;6369700;22;20026;-88
2023/12/20 04:22:03;;;;;;;23.73;3.80;;;8.00;99.90;;;;;;6369219;22;20003;-88
2023/12/20 04:24:29;;;;;;;14.68;4.50;;;8.00;99.90;;;;;;6370154;22;20017;-88
2023/12/20 04:26:54;;;;;;;10.95;3.35;;;7.90;99.90;;;;;;6369542;22;20002;-88
2023/12/20 04:29:20;;;;;;;18.33;3.53;;;7.90;99.90;;;;;;6368801;22;20007;-89
2023/12/20 04:31:45;;;;;;;18.10;3.45;;;7.90;99.90;;;;;;6371517;22;20006;-88
2023/12/20 04:34:11;;;;;;;18.02;3.25;;;7.90;99.90;;;;;;6367047;22;20009;-88
2023/12/20 04:36:36;;;;;;;20.30;3.55;;;8.00;99.90;;;;;;6367363;22;20094;-88
2023/12/20 04:39:04;;;;;;;18.23;3.63;;;8.00;99.90;;;;;;6366451;22;20038;-88
2023/12/20 04:41:30;;;;;;;24.90;4.88;;;8.00;99.90;;;;;;6369612;22;20340;-89
2023/12/20 04:43:56;;;;;;;20.35;4.15;;;8.00;99.90;;;;;;6368200;22;19999;-88
2023/12/20 04:46:21;;;;;;;21.65;3.95;;;8.00;99.90;;;;;;6369123;22;20007;-89
2023/12/20 04:48:47;;;;;;;20.02;3.42;;;8.00;99.90;;;;;;6369069;22;19995;-88
2023/12/20 04:51:12;;;;;;;21.15;3.42;;;8.00;99.90;;;;;;6368202;22;20018;-88
2023/12/20 04:53:38;;;;;;;24.48;3.88;;;8.00;99.90;;;;;;6368398;22;19995;-88
2023/12/20 04:56:04;;;;;;;30.48;5.45;;;8.00;99.90;;;;;;6371355;22;20062;-88
2023/12/20 04:58:29;;;;;;;17.40;3.55;;;8.00;99.90;;;;;;6384581;22;20011;-88
2023/12/20 05:00:55;;;;;;;16.15;2.55;;;8.00;99.90;;;;;;6372210;22;20001;-88
2023/12/20 05:03:20;;;;;;;13.68;3.28;;;7.90;99.90;;;;;;6372849;22;19998;-88
2023/12/20 05:05:46;;;;;;;20.80;3.20;;;7.90;99.90;;;;;;6372219;22;20152;-88
2023/12/20 05:08:11;;;;;;;30.13;3.85;;;7.90;99.90;;;;;;6372895;22;19998;-88
2023/12/20 05:10:40;;;;;;;17.80;3.33;;;7.90;99.90;;;;;;6372323;22;20319;-88
2023/12/20 05:13:05;;;;;;;15.70;2.75;;;7.90;99.90;;;;;;6375727;22;20034;-88
2023/12/20 05:15:31;;;;;;;19.40;4.15;;;7.90;99.90;;;;;;6370251;22;20024;-88
2023/12/20 05:17:57;;;;;;;19.10;3.03;;;7.80;99.90;;;;;;6369935;22;20357;-87
2023/12/20 05:20:23;;;;;;;20.65;3.55;;;7.80;99.90;;;;;;6370209;22;20002;-88
2023/12/20 05:22:48;;;;;;;25.90;5.00;;;7.90;99.90;;;;;;6370049;22;20003;-88
2023/12/20 05:25:14;;;;;;;21.60;4.10;;;7.90;99.90;;;;;;6371778;22;19995;-91
2023/12/20 05:27:40;;;;;;;11.18;2.67;;;7.90;99.90;;;;;;6374553;22;20010;-87
2023/12/20 05:30:06;;;;;;;17.42;2.92;;;7.80;99.90;;;;;;6371658;22;20010;-88
2023/12/20 05:32:31;;;;;;;33.00;4.43;;;7.80;99.90;;;;;;6372752;22;20005;-87
2023/12/20 05:34:57;;;;;;;16.02;4.03;;;7.90;99.90;;;;;;6370622;22;20010;-87
2023/12/20 05:37:22;;;;;;;12.20;2.63;;;7.90;99.90;;;;;;6367901;22;20002;-87
2023/12/20 05:39:48;;;;;;;15.52;2.38;;;7.80;99.90;;;;;;6369282;22;20030;-87
2023/12/20 05:42:14;;;;;;;16.38;3.33;;;7.90;99.90;;;;;;6369639;22;20022;-88
2023/12/20 05:44:39;;;;;;;20.25;3.53;;;7.90;99.90;;;;;;6369431;22;20013;-88
2023/12/20 05:47:05;;;;;;;18.20;2.70;;;7.90;99.90;;;;;;6370425;22;20068;-86
2023/12/20 05:49:31;;;;;;;16.58;3.15;;;7.90;99.90;;;;;;6375789;22;19998;-89
2023/12/20 05:51:57;;;;;;;16.27;2.92;;;7.90;99.90;;;;;;6388573;22;20020;-85
2023/12/20 05:54:22;;;;;;;14.40;3.15;;;7.90;99.90;;;;;;6366538;22;20006;-87
2023/12/20 05:56:48;;;;;;;27.67;3.15;;;7.90;99.90;;;;;;6368341;22;20002;-88
2023/12/20 05:59:14;;;;;;;22.70;3.00;;;7.90;99.90;;;;;;6369733;22;20535;-89
2023/12/20 06:01:39;;;;;;;14.43;4.45;;;7.90;99.90;;;;;;6369926;22;20081;-87
2023/12/20 06:04:05;;;;;;;19.25;4.20;;;7.90;99.90;;;;;;6371078;22;20009;-89
2023/12/20 06:06:30;;;;;;;23.05;3.95;;;7.90;99.90;;;;;;6370749;22;19998;-89
2023/12/20 06:08:56;;;;;;;17.38;3.67;;;8.00;99.90;;;;;;6371287;22;20319;-87
2023/12/20 06:11:22;;;;;;;28.30;4.50;;;8.00;99.90;;;;;;6386016;22;20017;-87
2023/12/20 06:13:48;;;;;;;20.10;3.88;;;8.00;99.90;;;;;;6370842;22;19994;-88
2023/12/20 06:16:14;;;;;;;20.10;3.85;;;8.00;99.90;;;;;;6370072;22;20078;-87
2023/12/20 06:18:41;;;;;;;23.73;4.43;;;8.00;99.90;;;;;;6370490;22;20017;-88
2023/12/20 06:21:07;;;;;;;15.55;3.40;;;8.00;99.90;;;;;;6369135;22;20009;-87
2023/12/20 06:23:33;;;;;;;29.20;4.20;;;8.10;99.90;;;;;;6368093;22;20367;-87
2023/12/20 06:25:58;;;;;;;26.38;4.00;;;8.00;99.90;;;;;;6370283;22;19998;-88
2023/12/20 06:28:24;;;;;;;20.63;3.50;;;8.10;99.90;;;;;;6370525;22;20017;-89
2023/12/20 06:30:52;;;;;;;28.63;5.10;;;8.10;99.90;;;;;;6389258;22;20022;-91
2023/12/20 06:33:18;;;;;;;17.88;3.63;;;8.10;99.90;;;;;;6373817;22;20063;-90
2023/12/20 06:35:44;;;;;;;15.80;3.22;;;8.30;99.90;;;;;;6370672;22;19991;-90
2023/12/20 06:38:09;;;;;;;19.63;3.53;;;8.20;99.90;;;;;;6367568;22;20108;-86
2023/12/20 06:40:35;;;;;;;20.60;3.65;;;8.20;99.90;;;;;;6367754;22;20119;-86
2023/12/20 06:43:00;;;;;;;16.50;3.50;;;8.20;99.90;;;;;;6368510;22;20035;-88
2023/12/20 06:45:26;;;;;;;21.73;3.15;;;8.30;99.90;;;;;;6383220;22;20048;-89
2023/12/20 06:47:52;;;;;;;25.25;3.85;;;8.30;99.90;;;;;;6374298;22;20288;-89
2023/12/20 06:50:17;;;;;;;21.70;4.35;;;8.30;99.90;;;;;;6368752;22;20041;-88
2023/12/20 06:52:43;;;;;;;21.67;4.57;;;8.30;99.90;;;;;;6369574;22;20005;-88
2023/12/20 06:55:08;;;;;;;24.63;3.92;;;8.30;99.90;;;;;;6367945;22;19999;-87
2023/12/20 06:57:36;;;;;;;26.73;3.90;;;8.30;99.90;;;;;;6367160;22;19998;-89
2023/12/20 07:00:02;;;;;;;22.05;3.85;;;8.30;99.90;;;;;;6366603;22;19998;-90
2023/12/20 07:02:30;;;;;;;24.15;4.35;;;8.30;99.90;;;;;;6368646;22;20017;-88
2023/12/20 07:04:55;;;;;;;29.25;4.55;;;8.30;99.90;;;;;;6370382;22;19998;-90
2023/12/20 07:07:23;;;;;;;24.00;4.47;;;8.30;99.90;;;;;;6371852;22;20016;-90
2023/12/20 07:09:48;;;;;;;24.02;4.28;;;8.30;99.90;;;;;;6371991;22;20010;-90
2023/12/20 07:12:14;;;;;;;23.70;3.92;;;8.30;99.90;;;;;;6372093;22;20009;-90
2023/12/20 07:14:39;;;;;;;19.55;4.00;;;8.40;99.90;;;;;;6371783;22;20002;-90
2023/12/20 07:17:07;;;;;;;23.17;3.55;;;8.30;99.90;;;;;;6372046;22;19998;-89
2023/12/20 07:19:32;;;;;;;29.45;4.00;;;8.40;99.90;;;;;;6368847;22;20222;-90
2023/12/20 07:21:58;;;;;;;27.38;5.00;;;8.40;99.90;;;;;;6370018;22;20067;-89
2023/12/20 07:24:23;;;;;;;21.88;3.58;;;8.40;99.90;;;;;;6370131;22;20132;-92
2023/12/20 07:26:49;;;;;;;20.90;3.97;;;8.40;99.90;;;;;;6368566;22;20009;-91
2023/12/20 07:29:14;;;;;;;20.20;4.10;;;8.40;99.90;;;;;;6369309;22;19999;-89
2023/12/20 07:31:40;;;;;;;28.67;4.22;;;8.40;99.90;;;;;;6372710;22;20033;-92
2023/12/20 07:34:06;;;;;;;20.85;3.47;;;8.30;99.90;;;;;;6372609;22;20471;-93
2023/12/20 07:36:31;;;;;;;17.02;2.92;;;8.40;99.90;;;;;;6369641;22;20009;-89
2023/12/20 07:38:57;;;;;;;16.30;3.63;;;8.40;99.90;;;;;;6372525;22;20445;-86
2023/12/20 07:41:23;;;;;;;16.65;3.58;;;8.30;99.90;;;;;;6380137;22;20325;-90
2023/12/20 07:43:49;;;;;;;22.85;3.42;;;8.40;99.90;;;;;;6368397;22;19998;-90
2023/12/20 07:46:15;;;;;;;19.48;4.15;;;8.40;99.90;;;;;;6368843;22;20006;-90
2023/12/20 07:48:42;;;;;;;26.75;3.70;;;8.40;99.90;;;;;;6369069;22;20003;-90
2023/12/20 07:51:09;;;;;;;23.83;3.67;;;8.40;99.90;;;;;;6368700;22;20018;-88
2023/12/20 07:53:35;;;;;;;22.27;3.35;;;8.30;99.90;;;;;;6367803;22;20006;-90
2023/12/20 07:56:00;;;;;;;22.42;3.85;;;8.40;99.90;;;;;;6368665;22;20002;-93
2023/12/20 07:58:26;;;;;;;24.00;4.85;;;8.30;99.90;;;;;;6370028;22;20059;-91
2023/12/20 08:00:52;;;;;;;22.83;4.07;;;8.40;99.90;;;;;;6369335;22;19994;-89
2023/12/20 08:03:17;;;;;;;11.63;2.70;;;8.40;99.90;;;;;;6371354;22;20470;-90
2023/12/20 08:05:43;;;;;;;19.90;3.13;;;8.40;99.90;;;;;;6369167;22;20422;-86
2023/12/20 08:08:08;;;;;;;25.42;3.60;;;8.40;99.90;;;;;;6367566;22;20006;-91
2023/12/20 08:10:34;;;;;;;19.27;4.85;;;8.40;99.90;;;;;;6367206;22;20013;-88
2023/12/20 08:13:00;;;;;;;29.33;5.50;;;8.30;99.90;;;;;;6368477;22;20009;-91
2023/12/20 08:15:26;;;;;;;23.38;4.18;;;8.40;99.90;;;;;;6367520;22;19998;-93
2023/12/20 08:17:53;;;;;;;22.02;3.85;;;8.40;99.90;;;;;;6369852;22;20051;-92
2023/12/20 08:20:20;;;;;;;21.90;3.35;;;8.40;99.90;;;;;;6371371;22;20071;-91
2023/12/20 08:22:46;;;;;;;22.52;3.80;;;8.40;99.90;;;;;;6369657;22;20414;-90
2023/12/20 08:25:11;;;;;;;25.75;4.20;;;8.40;99.90;;;;;;6368136;22;19999;-89
2023/12/20 08:27:43;;;;;;;22.17;4.30;;;8.40;99.90;;;;;;6370864;22;19994;-93
2023/12/20 08:30:10;;;;;;;18.75;4.30;;;8.40;99.90;;;;;;6370522;22;20059;-94
2023/12/20 08:32:35;;;;;;;21.30;3.22;;;8.40;99.90;;;;;;6371914;22;20005;-90
2023/12/20 08:35:01;;;;;;;19.52;2.90;;;9.50;99.90;;;;;;6385709;22;20006;-89
2023/12/20 08:37:27;;;;;;;20.15;3.65;;;8.50;99.90;;;;;;6370479;22;20026;-90
2023/12/20 08:39:52;;;;;;;20.77;4.07;;;8.50;99.90;;;;;;6369467;22;20007;-89
2023/12/20 08:42:18;;;;;;;25.15;3.33;;;8.50;99.90;;;;;;6371632;22;20007;-89
2023/12/20 08:44:43;;;;;;;22.75;4.10;;;8.50;99.90;;;;;;6373266;22;20005;-91
2023/12/20 08:47:13;;;;;;;23.25;4.70;;;8.50;99.90;;;;;;6373897;22;20006;-88
2023/12/20 08:49:39;;;;;;;27.92;5.07;;;8.50;99.90;;;;;;6370641;22;20010;-88
2023/12/20 08:54:39;;;;;;;30.58;4.20;;;8.50;99.90;;;;;;6358347;22;20380;-92
2023/12/20 08:57:06;;;;;;;21.98;4.47;;;8.50;99.90;;;;;;6369433;22;19998;-89
2023/12/20 08:59:32;;;;;;;24.67;4.22;;;9.90;99.90;;;;;;6369526;22;20300;-89
2023/12/20 09:01:58;;;;;;;17.98;3.15;;;8.60;99.90;;;;;;6369533;22;20318;-88
2023/12/20 09:04:24;;;;;;;20.27;3.78;;;8.60;99.90;;;;;;6369913;22;20027;-89
2023/12/20 09:06:50;;;;;;;23.60;3.33;;;8.60;99.90;;;;;;6371905;22;19998;-93
2023/12/20 09:09:16;;;;;;;28.13;3.53;;;8.60;99.90;;;;;;6383267;22;20006;-92
2023/12/20 09:11:42;;;;;;;23.95;3.35;;;8.60;99.90;;;;;;6380693;22;20332;-91
2023/12/20 09:14:08;;;;;;;20.92;4.53;;;8.70;99.90;;;;;;6374731;22;20010;-92
2023/12/20 09:16:34;;;;;;;19.70;3.97;;;8.60;99.90;;;;;;6373264;22;20009;-90
2023/12/20 09:19:00;;;;;;;23.65;4.50;;;8.70;99.90;;;;;;6370128;22;20002;-91
2023/12/20 09:21:27;;;;;;;24.23;4.07;;;8.70;99.90;;;;;;6375365;22;20002;-89
2023/12/20 09:23:53;;;;;;;16.52;3.50;;;8.70;99.90;;;;;;6378738;22;20353;-90
2023/12/20 09:26:19;;;;;;;14.02;3.70;;;8.70;99.90;;;;;;6378634;22;19994;-90
2023/12/20 09:28:45;;;;;;;21.30;3.30;;;8.70;99.90;;;;;;6389666;22;20083;-91
2023/12/20 09:31:10;;;;;;;17.58;3.47;;;8.70;99.90;;;;;;6374615;22;20022;-90
2023/12/20 09:33:36;;;;;;;20.88;4.25;;;8.80;99.90;;;;;;6369136;22;19998;-91
2023/12/20 09:36:02;;;;;;;22.00;3.58;;;8.80;99.90;;;;;;6371850;22;19998;-91
2023/12/20 09:38:28;;;;;;;24.75;4.15;;;8.80;99.90;;;;;;6370183;22;20302;-90
2023/12/20 09:40:55;;;;;;;18.15;3.63;;;8.80;99.90;;;;;;6369377;22;20026;-90
2023/12/20 09:43:25;;;;;;;21.50;4.57;;;8.80;99.90;;;;;;6374325;22;20418;-90
2023/12/20 09:45:53;;;;;;;26.10;3.15;;;8.80;99.90;;;;;;6371652;22;20006;-91
2023/12/20 09:48:19;;;;;;;25.42;3.72;;;8.80;99.90;;;;;;6371978;22;19995;-91
2023/12/20 09:50:47;;;;;;;19.10;4.47;;;8.90;99.90;;;;;;6374334;22;20036;-91
2023/12/20 09:53:16;;;;;;;19.17;3.35;;;8.90;99.90;;;;;;6371966;22;20069;-91
2023/12/20 09:55:42;;;;;;;20.77;3.65;;;8.90;99.90;;;;;;6370955;22;20008;-91
2023/12/20 09:58:08;;;;;;;24.95;4.93;;;8.90;99.90;;;;;;6371713;22;20026;-90
2023/12/20 10:00:35;;;;;;;28.55;4.65;;;8.90;99.90;;;;;;6371332;22;20334;-91
2023/12/20 10:03:01;;;;;;;19.30;2.67;;;8.90;99.90;;;;;;6372819;22;20052;-91
2023/12/20 10:05:28;;;;;;;22.42;3.70;;;9.00;99.90;;;;;;6373568;22;20062;-91
2023/12/20 10:07:54;;;;;;;30.92;3.38;;;9.00;99.90;;;;;;6371929;22;20081;-92
2023/12/20 10:10:20;;;;;;;21.33;3.42;;;9.00;99.90;;;;;;6375662;22;20033;-84
2023/12/20 10:13:06;;;;;;;34.63;4.53;;;9.90;99.90;;;;;;6369444;22;20013;-84
2023/12/20 10:15:36;;;;;;;15.43;2.88;;;9.00;99.90;;;;;;6369421;22;20002;-88
2023/12/20 10:18:04;;;;;;;12.88;3.28;;;9.00;99.90;;;;;;6370629;22;20366;-91
2023/12/20 10:20:30;;;;;;;20.90;3.67;;;9.00;99.90;;;;;;6372967;22;20013;-88
2023/12/20 10:22:57;;;;;;;35.22;4.32;;;9.10;99.90;;;;;;6373208;22;19999;-86
2023/12/20 10:25:24;;;;;;;18.30;3.72;;;9.10;99.90;;;;;;6374618;22;20009;-92
2023/12/20 10:28:09;;;;;;;23.42;3.45;;;9.10;99.90;;;;;;6372969;22;19995;-93
2023/12/20 10:30:37;;;;;;;25.77;4.13;;;9.10;99.90;;;;;;6374972;22;20053;-94
2023/12/20 10:33:05;;;;;;;20.67;3.75;;;9.20;99.90;;;;;;6372256;22;20061;-93
2023/12/20 10:35:31;;;;;;;20.92;3.33;;;9.20;99.90;;;;;;6374187;22;20006;-93
2023/12/20 10:38:01;;;;;;;36.58;4.43;;;9.20;99.90;;;;;;6376110;22;20058;-93
2023/12/20 10:40:29;;;;;;;28.10;4.97;;;9.20;99.90;;;;;;6374122;22;20013;-90
2023/12/20 10:42:55;;;;;;;20.70;4.10;;;9.20;99.90;;;;;;6372549;22;20078;-92
2023/12/20 10:45:22;;;;;;;16.52;4.18;;;9.20;99.90;;;;;;6373847;22;20022;-91
2023/12/20 10:47:53;;;;;;;17.27;3.42;;;9.20;99.90;;;;;;6372911;22;20010;-91
2023/12/20 10:50:20;;;;;;;22.33;3.92;;;9.20;99.90;;;;;;6370720;22;20501;-92
2023/12/20 10:52:48;;;;;;;14.95;2.88;;;9.30;99.90;;;;;;6374846;22;20018;-94
2023/12/20 10:55:14;;;;;;;22.77;3.15;;;10.00;99.90;;;;;;6375478;22;20030;-93
2023/12/20 10:57:41;;;;;;;17.65;2.85;;;9.30;99.90;;;;;;6369317;22;20005;-93
2023/12/20 11:00:12;;;;;;;19.85;3.38;;;9.30;99.90;;;;;;6369344;22;20002;-94
2023/12/20 11:02:40;;;;;;;;;;;9.30;99.90;;;;;;6371094;22;20010;-91
2023/12/20 11:05:11;;;;;;;18.52;3.38;;;9.30;99.90;;;;;;6367266;22;19944;-91
2023/12/20 11:07:45;;;;;;;23.67;3.40;;;9.30;99.90;;;;;;6382097;22;19998;-91
2023/12/20 11:10:21;;;;;;;17.80;3.20;;;9.30;99.90;;;;;;6372249;22;20014;-92
2023/12/20 11:13:15;;;;;;;21.40;3.13;;;9.30;99.90;;;;;;6382115;22;19994;-90
2023/12/20 11:15:42;;;;;;;17.27;3.40;;;9.30;99.90;;;;;;6383467;22;20001;-91
2023/12/20 11:18:09;;;;;;;23.85;3.92;;;9.30;99.90;;;;;;6380027;22;20002;-94
2023/12/20 11:20:39;;;;;;;17.05;3.05;;;9.40;99.90;;;;;;6373317;22;20468;-91
2023/12/20 11:23:06;;;;;;;19.65;3.42;;;9.40;99.90;;;;;;6373136;22;20433;-90
2023/12/20 11:25:47;;;;;;;17.00;3.75;;;9.40;99.90;;;;;;6367959;22;20002;-85
2023/12/20 11:28:13;;;;;;;13.77;2.95;;;9.40;99.90;;;;;;6367100;22;19999;-85
2023/12/20 11:30:52;;;;;;;22.25;3.75;;;9.40;99.90;;;;;;6375308;22;20446;-88
2023/12/20 11:33:25;;;;;;;22.83;4.65;;;9.40;99.90;;;;;;6355707;22;20369;-90
2023/12/20 11:35:51;;;;;;;26.15;3.72;;;8.70;99.90;;;;;;6379977;22;20055;-93
2023/12/20 11:38:19;;;;;;;25.92;4.28;;;10.40;99.90;;;;;;6375107;22;20073;-92
2023/12/20 11:40:49;;;;;;;31.50;3.20;;;9.40;99.90;;;;;;6370888;22;20501;-92
2023/12/20 11:43:31;;;;;;;17.63;3.38;;;9.40;99.90;;;;;;6370354;22;20002;-93
2023/12/20 11:46:06;;;;;;;17.85;3.53;;;10.00;99.90;;;;;;6370339;22;20457;-93
2023/12/20 11:48:32;;;;;;;19.08;3.50;;;9.40;99.90;;;;;;6377815;22;20014;-93
2023/12/20 11:51:16;;;;;;;16.25;2.63;;;9.40;99.90;;;;;;6388900;22;20070;-93
2023/12/20 11:53:42;;;;;;;16.40;3.85;;;9.20;99.90;;;;;;6370147;22;19998;-93
2023/12/20 11:56:17;;;;;;;21.65;3.08;;;10.10;99.90;;;;;;6368138;22;20484;-93
2023/12/20 11:58:44;;;;;;;16.88;3.50;;;9.40;99.90;;;;;;6369523;22;20040;-94
2023/12/20 12:01:09;;;;;;;24.63;4.20;;;9.40;99.90;;;;;;6369151;22;20077;-92
2023/12/20 12:03:38;;;;;;;16.10;2.67;;;9.70;99.90;;;;;;6372364;22;20051;-93
2023/12/20 12:06:13;;;;;;;22.02;4.30;;;10.10;99.90;;;;;;6377048;22;19999;-95
2023/12/20 12:08:39;;;;;;;21.92;3.78;;;9.40;99.90;;;;;;6381609;22;20013;-94
2023/12/20 12:11:06;;;;;;;26.90;3.90;;;10.20;99.90;;;;;;6387993;22;20014;-94
2023/12/20 12:13:31;;;;;;;24.85;3.83;;;9.90;99.90;;;;;;6382094;22;20005;-93
2023/12/20 12:16:23;;;;;;;25.05;3.03;;;10.40;99.90;;;;;;6397056;22;20010;-94
2023/12/20 12:18:59;;;;;;;20.40;3.58;;;9.00;99.90;;;;;;6374254;22;20002;-90
2023/12/20 12:21:25;;;;;;;10.15;2.78;;;10.10;99.90;;;;;;6375212;22;20046;-92
2023/12/20 12:23:51;;;;;;;15.77;3.33;;;10.30;99.90;;;;;;6384081;22;19993;-86
2023/12/20 12:26:16;;;;;;;13.73;3.28;;;9.50;99.90;;;;;;6371920;22;20430;-87
2023/12/20 12:28:43;;;;;;;22.17;3.85;;;9.50;99.90;;;;;;6364719;22;20083;-87
2023/12/20 12:31:17;;;;;;;20.55;3.88;;;9.50;99.90;;;;;;6366113;22;20098;-91
2023/12/20 12:33:45;;;;;;;25.33;3.15;;;9.50;99.90;;;;;;6366282;22;20400;-90
2023/12/20 12:36:12;;;;;;;13.48;2.42;;;9.50;99.90;;;;;;6366729;22;20003;-89
2023/12/20 12:38:41;;;;;;;13.65;3.20;;;9.50;99.90;;;;;;6369434;22;20010;-91
2023/12/20 12:41:07;;;;;;;31.77;4.40;;;9.50;99.90;;;;;;6369761;22;19994;-90
2023/12/20 12:43:33;;;;;;;13.38;2.72;;;9.50;99.90;;;;;;6368919;22;20069;-91
2023/12/20 12:45:58;;;;;;;15.60;2.80;;;9.50;99.90;;;;;;6370338;22;20075;-89
2023/12/20 12:48:27;;;;;;;16.58;4.00;;;9.50;99.90;;;;;;6369015;22;20022;-91